createdAt,value
2018-06-16T00:01:57.230Z,12.63
2018-06-16T00:04:26.731Z,12.37
2018-06-16T00:06:55.780Z,13.03
2018-06-16T00:09:36.596Z,11.87
2018-06-16T00:14:58.955Z,12.37
2018-06-16T00:17:29.428Z,12.67
2018-06-16T00:19:58.741Z,11.70
2018-06-16T00:22:27.894Z,12.57
2018-06-16T00:25:00.934Z,12.40
2018-06-16T00:27:30.663Z,11.93
2018-06-16T00:29:59.633Z,12.33
2018-06-16T00:32:28.758Z,12.10
2018-06-16T00:34:57.719Z,11.97
2018-06-16T00:37:26.996Z,11.70
2018-06-16T00:39:56.135Z,11.73
2018-06-16T00:42:25.153Z,11.33
2018-06-16T00:44:54.307Z,10.63
2018-06-16T00:47:23.457Z,11.20
2018-06-16T00:49:52.554Z,10.63
2018-06-16T00:52:21.630Z,11.10
2018-06-16T00:54:50.766Z,10.27
2018-06-16T00:57:30.731Z,9.83
2018-06-16T00:59:59.681Z,10.23
2018-06-16T01:02:28.953Z,10.23
2018-06-16T01:04:58.266Z,10.17
2018-06-16T01:07:27.457Z,11.07
2018-06-16T01:09:56.552Z,10.13
2018-06-16T01:12:25.544Z,9.77
2018-06-16T01:14:54.756Z,10.03
2018-06-16T01:17:27.528Z,16.10
2018-06-16T01:19:58.153Z,9.97
2018-06-16T01:22:27.267Z,34.00
2018-06-16T01:24:56.348Z,16.13
2018-06-16T01:27:25.407Z,10.40
2018-06-16T01:29:54.631Z,9.80
2018-06-16T01:32:23.688Z,9.77
2018-06-16T01:34:52.816Z,10.30
2018-06-16T01:37:21.815Z,10.33
2018-06-16T01:39:50.987Z,9.43
2018-06-16T01:42:20.073Z,10.03
2018-06-16T01:44:49.100Z,10.43
2018-06-16T01:47:18.289Z,10.03
2018-06-16T01:49:47.339Z,9.73
2018-06-16T01:52:16.417Z,9.93
2018-06-16T01:54:45.399Z,9.87
2018-06-16T01:57:14.441Z,10.03
2018-06-16T01:59:43.451Z,10.40
2018-06-16T02:02:12.579Z,9.93
2018-06-16T02:04:41.773Z,9.80
2018-06-16T02:07:10.718Z,10.60
2018-06-16T02:09:39.710Z,10.43
2018-06-16T02:12:08.767Z,10.13
2018-06-16T02:14:37.834Z,10.53
2018-06-16T02:17:06.988Z,12.47
2018-06-16T02:19:36.097Z,9.83
2018-06-16T02:22:05.108Z,10.07
2018-06-16T02:24:34.165Z,9.93
2018-06-16T02:27:03.371Z,9.97
2018-06-16T02:29:32.476Z,10.37
2018-06-16T02:32:01.512Z,9.77
2018-06-16T02:34:30.573Z,9.60
2018-06-16T02:36:59.739Z,9.77
2018-06-16T02:39:28.853Z,9.57
2018-06-16T02:41:57.907Z,9.87
2018-06-16T02:44:26.916Z,9.23
2018-06-16T02:46:56.060Z,11.87
2018-06-16T02:49:25.135Z,9.53
2018-06-16T02:51:54.210Z,10.33
2018-06-16T02:54:23.516Z,9.60
2018-06-16T02:56:52.604Z,9.90
2018-06-16T02:59:21.675Z,10.40
2018-06-16T03:01:50.770Z,11.63
2018-06-16T03:04:19.862Z,10.70
2018-06-16T03:06:48.956Z,10.73
2018-06-16T03:09:18.566Z,10.60
2018-06-16T03:11:47.520Z,10.43
2018-06-16T03:14:16.689Z,10.07
2018-06-16T03:16:45.949Z,10.37
2018-06-16T03:19:14.961Z,9.67
2018-06-16T03:21:43.906Z,10.77
2018-06-16T03:24:13.062Z,9.23
2018-06-16T03:26:42.078Z,10.30
2018-06-16T03:29:11.159Z,9.63
2018-06-16T03:31:40.299Z,10.10
2018-06-16T03:34:09.368Z,10.00
2018-06-16T03:36:38.466Z,9.73
2018-06-16T03:39:08.552Z,9.60
2018-06-16T03:41:37.593Z,9.47
2018-06-16T03:44:06.613Z,9.37
2018-06-16T03:46:35.790Z,8.93
2018-06-16T03:49:04.740Z,9.17
2018-06-16T03:51:33.853Z,9.40
2018-06-16T03:54:02.957Z,9.37
2018-06-16T03:56:32.115Z,9.57
2018-06-16T03:59:01.211Z,10.47
2018-06-16T04:01:30.344Z,9.90
2018-06-16T04:03:59.263Z,9.33
2018-06-16T04:06:28.498Z,8.93
2018-06-16T04:08:57.457Z,9.47
2018-06-16T04:11:26.660Z,9.13
2018-06-16T04:13:55.616Z,9.83
2018-06-16T04:16:24.514Z,15.13
2018-06-16T04:18:53.618Z,14.47
2018-06-16T04:21:22.767Z,11.70
2018-06-16T04:23:51.898Z,11.63
2018-06-16T04:26:20.851Z,13.27
2018-06-16T04:28:49.844Z,17.33
2018-06-16T04:31:18.976Z,13.03
2018-06-16T04:33:48.028Z,12.07
2018-06-16T04:36:17.014Z,11.40
2018-06-16T04:38:46.154Z,14.10
2018-06-16T04:41:15.343Z,11.80
2018-06-16T04:43:44.406Z,11.20
2018-06-16T04:46:13.658Z,14.23
2018-06-16T04:48:42.811Z,15.70
2018-06-16T04:51:12.006Z,11.70
2018-06-16T04:53:41.015Z,10.17
2018-06-16T04:56:10.174Z,9.23
2018-06-16T04:58:39.120Z,9.10
2018-06-16T05:01:08.352Z,8.75
2018-06-16T05:03:37.485Z,9.45
2018-06-16T05:06:06.658Z,8.78
2018-06-16T05:08:35.822Z,9.13
2018-06-16T05:11:04.942Z,8.55
2018-06-16T05:13:34.509Z,9.17
2018-06-16T05:16:03.731Z,7.33
2018-06-16T05:18:32.766Z,6.25
2018-06-16T05:21:01.984Z,6.50
2018-06-16T05:23:31.090Z,6.20
2018-06-16T05:26:00.144Z,6.45
2018-06-16T05:28:29.259Z,6.12
2018-06-16T05:30:58.636Z,5.75
2018-06-16T05:33:27.678Z,5.15
2018-06-16T05:35:56.923Z,6.10
2018-06-16T05:38:25.972Z,5.58
2018-06-16T05:40:55.112Z,6.33
2018-06-16T05:43:24.283Z,6.67
2018-06-16T05:45:53.574Z,6.78
2018-06-16T05:48:22.712Z,6.80
2018-06-16T05:50:51.814Z,6.60
2018-06-16T05:53:21.007Z,7.30
2018-06-16T05:57:19.355Z,6.60
2018-06-16T05:59:48.617Z,7.47
2018-06-16T06:02:17.705Z,6.67
2018-06-16T06:04:46.646Z,6.42
2018-06-16T06:07:15.975Z,7.03
2018-06-16T06:09:46.270Z,7.05
2018-06-16T06:12:15.321Z,6.75
2018-06-16T06:14:44.364Z,7.05
2018-06-16T06:17:13.472Z,7.20
2018-06-16T06:19:42.612Z,6.50
2018-06-16T06:22:11.668Z,6.85
2018-06-16T06:24:40.824Z,6.53
2018-06-16T06:27:10.032Z,6.95
2018-06-16T06:29:39.040Z,6.45
2018-06-16T06:32:08.175Z,6.15
2018-06-16T06:34:37.157Z,6.67
2018-06-16T06:37:06.265Z,6.70
2018-06-16T06:39:35.286Z,6.50
2018-06-16T06:42:04.385Z,5.62
2018-06-16T06:44:33.490Z,6.95
2018-06-16T06:47:02.640Z,6.42
2018-06-16T06:49:32.047Z,5.95
2018-06-16T06:52:01.257Z,6.15
2018-06-16T06:54:30.629Z,5.03
2018-06-16T06:56:59.771Z,5.87
2018-06-16T06:59:28.806Z,5.28
2018-06-16T07:01:57.983Z,5.78
2018-06-16T07:04:27.132Z,6.78
2018-06-16T07:06:57.379Z,6.45
2018-06-16T07:09:26.584Z,6.65
2018-06-16T07:11:59.825Z,6.78
2018-06-16T07:14:28.904Z,7.42
2018-06-16T07:16:58.308Z,8.10
2018-06-16T07:19:27.341Z,8.18
2018-06-16T07:21:56.419Z,8.23
2018-06-16T07:24:25.403Z,9.33
2018-06-16T07:26:54.585Z,8.05
2018-06-16T07:29:23.798Z,8.80
2018-06-16T07:31:54.568Z,8.93
2018-06-16T07:34:23.623Z,8.15
2018-06-16T07:36:52.715Z,8.63
2018-06-16T07:39:21.840Z,9.03
2018-06-16T07:41:51.051Z,13.93
2018-06-16T07:44:20.040Z,11.95
2018-06-16T07:46:49.166Z,12.07
2018-06-16T07:49:18.319Z,8.95
2018-06-16T07:51:47.344Z,9.68
2018-06-16T07:54:16.405Z,9.50
2018-06-16T07:56:45.599Z,10.28
2018-06-16T07:59:14.565Z,9.78
2018-06-16T08:01:43.705Z,10.15
2018-06-16T08:04:12.778Z,10.15
2018-06-16T08:06:41.811Z,10.32
2018-06-16T08:09:11.731Z,10.88
2018-06-16T08:11:40.968Z,12.58
2018-06-16T08:14:09.972Z,11.65
2018-06-16T08:16:39.045Z,9.83
2018-06-16T08:19:08.261Z,9.73
2018-06-16T08:21:37.263Z,11.38
2018-06-16T08:24:06.373Z,10.48
2018-06-16T08:26:35.492Z,10.23
2018-06-16T08:29:04.493Z,10.95
2018-06-16T08:31:33.624Z,10.28
2018-06-16T08:34:02.819Z,10.40
2018-06-16T08:36:31.698Z,11.85
2018-06-16T08:39:01.713Z,11.05
2018-06-16T08:41:30.980Z,11.68
2018-06-16T08:44:00.284Z,11.60
2018-06-16T08:46:29.448Z,11.12
2018-06-16T08:48:59.129Z,11.68
2018-06-16T08:51:28.255Z,12.03
2018-06-16T08:53:57.231Z,12.53
2018-06-16T08:56:26.441Z,12.73
2018-06-16T08:58:55.597Z,12.82
2018-06-16T09:01:24.715Z,12.55
2018-06-16T09:03:53.904Z,12.70
2018-06-16T09:06:22.962Z,13.60
2018-06-16T09:08:52.078Z,13.65
2018-06-16T09:11:21.198Z,13.00
2018-06-16T09:13:50.265Z,12.47
2018-06-16T09:16:19.385Z,14.05
2018-06-16T09:18:48.514Z,13.60
2018-06-16T09:21:17.560Z,13.20
2018-06-16T09:23:46.758Z,12.85
2018-06-16T09:26:15.953Z,13.53
2018-06-16T09:28:45.052Z,13.38
2018-06-16T09:31:14.147Z,15.93
2018-06-16T09:33:43.852Z,14.30
2018-06-16T09:36:13.045Z,15.58
2018-06-16T09:38:42.918Z,15.00
2018-06-16T09:41:12.058Z,14.23
2018-06-16T09:43:41.253Z,14.43
2018-06-16T09:46:10.267Z,14.63
2018-06-16T09:48:39.423Z,14.87
2018-06-16T09:51:08.464Z,14.20
2018-06-16T09:53:37.542Z,14.65
2018-06-16T09:56:06.660Z,14.47
2018-06-16T09:58:36.587Z,14.47
2018-06-16T10:01:05.708Z,15.15
2018-06-16T10:03:34.834Z,15.40
2018-06-16T10:06:04.022Z,15.23
2018-06-16T10:08:33.172Z,14.83
2018-06-16T10:11:02.238Z,15.65
2018-06-16T10:13:31.365Z,14.95
2018-06-16T10:16:00.411Z,16.05
2018-06-16T10:18:29.559Z,15.00
2018-06-16T10:20:58.649Z,14.65
2018-06-16T10:23:27.651Z,14.87
2018-06-16T10:25:57.591Z,14.47
2018-06-16T10:28:26.731Z,14.25
2018-06-16T10:30:55.847Z,14.58
2018-06-16T10:33:24.937Z,13.55
2018-06-16T10:35:54.058Z,13.88
2018-06-16T10:38:23.112Z,13.50
2018-06-16T10:40:52.161Z,12.85
2018-06-16T10:43:21.308Z,12.95
2018-06-16T10:45:50.431Z,12.20
2018-06-16T10:48:19.407Z,13.48
2018-06-16T10:50:48.576Z,13.35
2018-06-16T10:53:17.784Z,11.97
2018-06-16T10:55:47.001Z,12.60
2018-06-16T10:58:16.176Z,12.35
2018-06-16T11:00:46.163Z,11.38
2018-06-16T11:03:15.318Z,11.68
2018-06-16T11:05:44.418Z,12.43
2018-06-16T11:08:13.562Z,11.10
2018-06-16T11:10:42.557Z,11.05
2018-06-16T11:13:11.862Z,13.65
2018-06-16T11:15:40.994Z,11.75
2018-06-16T11:18:10.168Z,11.18
2018-06-16T11:20:39.278Z,10.65
2018-06-16T11:23:08.464Z,9.68
2018-06-16T11:25:37.445Z,7.70
2018-06-16T11:28:06.880Z,6.67
2018-06-16T11:30:40.616Z,5.20
2018-06-16T11:33:10.975Z,5.87
2018-06-16T11:35:46.750Z,5.17
2018-06-16T11:38:15.891Z,6.00
2018-06-16T11:40:46.060Z,5.57
2018-06-16T11:43:15.314Z,4.97
2018-06-16T11:45:44.481Z,5.13
2018-06-16T11:48:17.822Z,5.87
2018-06-16T11:50:46.819Z,5.03
2018-06-16T11:53:16.113Z,5.17
2018-06-16T11:55:45.288Z,4.83
2018-06-16T11:58:15.647Z,5.80
2018-06-16T12:04:03.126Z,5.97
2018-06-16T12:06:49.259Z,6.70
2018-06-16T12:09:23.690Z,7.12
2018-06-16T12:11:53.048Z,6.47
2018-06-16T12:14:22.373Z,7.30
2018-06-16T12:16:51.952Z,7.53
2018-06-16T12:19:21.096Z,8.98
2018-06-16T12:21:50.129Z,9.30
2018-06-16T12:24:19.255Z,9.58
2018-06-16T12:26:48.407Z,10.05
2018-06-16T12:29:17.968Z,9.70
2018-06-16T12:31:47.142Z,9.70
2018-06-16T12:34:16.242Z,10.00
2018-06-16T12:36:48.141Z,9.88
2018-06-16T12:39:17.258Z,9.38
2018-06-16T12:41:46.366Z,11.15
2018-06-16T12:44:15.808Z,9.45
2018-06-16T12:46:45.221Z,8.53
2018-06-16T12:49:14.293Z,9.65
2018-06-16T12:54:36.054Z,9.40
2018-06-16T12:57:05.255Z,8.25
2018-06-16T12:59:34.436Z,6.85
2018-06-16T13:02:03.821Z,6.08
2018-06-16T13:04:36.220Z,5.60
2018-06-16T13:07:15.757Z,4.90
2018-06-16T13:09:46.613Z,5.03
2018-06-16T13:12:45.417Z,4.80
2018-06-16T13:16:04.648Z,4.53
2018-06-16T13:20:03.403Z,4.60
2018-06-16T13:22:32.640Z,5.20
2018-06-16T13:25:01.918Z,4.12
2018-06-16T13:27:31.189Z,4.67
2018-06-16T13:30:00.494Z,4.45
2018-06-16T13:32:29.787Z,4.72
2018-06-16T13:34:59.137Z,4.42
2018-06-16T13:37:28.333Z,4.37
2018-06-16T13:39:57.487Z,4.45
2018-06-16T13:42:26.826Z,3.95
2018-06-16T13:44:56.126Z,4.78
2018-06-16T13:47:25.292Z,4.95
2018-06-16T13:49:54.432Z,4.70
2018-06-16T13:52:23.535Z,4.72
2018-06-16T13:54:52.830Z,5.25
2018-06-16T13:57:21.984Z,4.67
2018-06-16T13:59:51.236Z,5.45
2018-06-16T14:02:24.326Z,4.80
2018-06-16T14:04:56.756Z,5.75
2018-06-16T14:07:26.115Z,5.70
2018-06-16T14:09:55.872Z,5.45
2018-06-16T14:12:27.392Z,5.47
2018-06-16T14:14:56.604Z,5.10
2018-06-16T14:17:25.803Z,5.70
2018-06-16T14:19:54.889Z,5.95
2018-06-16T14:22:23.914Z,5.58
2018-06-16T14:24:53.202Z,5.75
2018-06-16T14:27:22.587Z,4.83
2018-06-16T14:29:51.490Z,5.28
2018-06-16T14:32:20.788Z,5.30
2018-06-16T14:34:50.029Z,6.53
2018-06-16T14:37:18.961Z,5.47
2018-06-16T14:39:47.940Z,5.90
2018-06-16T14:42:17.079Z,5.12
2018-06-16T14:44:46.136Z,5.65
2018-06-16T14:47:15.248Z,5.72
2018-06-16T14:49:44.385Z,5.20
2018-06-16T14:52:13.436Z,5.78
2018-06-16T14:54:42.605Z,5.62
2018-06-16T14:57:11.549Z,5.15
2018-06-16T14:59:40.654Z,6.80
2018-06-16T15:02:09.722Z,5.20
2018-06-16T15:04:38.926Z,6.30
2018-06-16T15:07:07.961Z,5.12
2018-06-16T15:09:37.112Z,5.25
2018-06-16T15:12:06.308Z,6.85
2018-06-16T15:14:35.490Z,5.50
2018-06-16T15:17:04.504Z,4.60
2018-06-16T15:19:34.332Z,4.87
2018-06-16T15:22:03.435Z,4.62
2018-06-16T15:24:32.530Z,5.35
2018-06-16T15:27:02.599Z,4.75
2018-06-16T15:29:31.638Z,5.62
2018-06-16T15:32:00.777Z,7.00
2018-06-16T15:34:30.135Z,7.12
2018-06-16T15:36:59.089Z,5.85
2018-06-16T15:39:28.220Z,6.28
2018-06-16T15:41:57.387Z,6.75
2018-06-16T15:44:26.431Z,8.70
2018-06-16T15:46:55.826Z,7.65
2018-06-16T15:49:24.786Z,6.55
2018-06-16T15:51:53.868Z,10.08
2018-06-16T15:54:23.031Z,9.00
2018-06-16T15:56:52.041Z,7.47
2018-06-16T15:59:21.203Z,7.20
2018-06-16T16:01:50.239Z,6.22
2018-06-16T16:04:19.858Z,5.90
2018-06-16T16:06:48.775Z,6.20
2018-06-16T16:09:18.024Z,5.78
2018-06-16T16:11:47.295Z,7.17
2018-06-16T16:14:16.342Z,7.20
2018-06-16T16:16:45.417Z,6.45
2018-06-16T16:19:20.361Z,7.97
2018-06-16T16:21:49.256Z,9.18
2018-06-16T16:24:19.086Z,8.23
2018-06-16T16:26:48.503Z,9.50
2018-06-16T16:29:17.697Z,9.18
2018-06-16T16:31:46.643Z,9.13
2018-06-16T16:34:15.668Z,8.78
2018-06-16T16:36:44.591Z,8.28
2018-06-16T16:39:13.625Z,7.80
2018-06-16T16:41:43.013Z,7.70
2018-06-16T16:44:11.974Z,8.00
2018-06-16T16:46:40.992Z,7.60
2018-06-16T16:49:10.305Z,7.78
2018-06-16T16:51:39.207Z,8.33
2018-06-16T16:54:08.131Z,7.47
2018-06-16T16:56:37.545Z,7.35
2018-06-16T16:59:06.619Z,7.25
2018-06-16T17:01:35.519Z,8.20
2018-06-16T17:04:05.646Z,7.75
2018-06-16T17:06:34.577Z,7.15
2018-06-16T17:09:05.464Z,8.95
2018-06-16T17:11:34.412Z,7.80
2018-06-16T17:14:03.414Z,7.80
2018-06-16T17:16:32.423Z,8.28
2018-06-16T17:19:01.324Z,8.15
2018-06-16T17:21:30.345Z,8.25
2018-06-16T17:23:59.437Z,8.38
2018-06-16T17:26:28.325Z,8.40
2018-06-16T17:28:57.284Z,7.97
2018-06-16T17:31:26.639Z,8.40
2018-06-16T17:33:55.521Z,8.15
2018-06-16T17:36:24.503Z,9.80
2018-06-16T17:38:53.766Z,8.40
2018-06-16T17:41:22.709Z,8.80
2018-06-16T17:43:52.374Z,9.83
2018-06-16T17:46:21.671Z,11.88
2018-06-16T17:48:50.718Z,14.30
2018-06-16T17:51:19.707Z,11.68
2018-06-16T17:53:49.362Z,11.30
2018-06-16T17:56:18.365Z,11.48
2018-06-16T17:58:47.306Z,10.20
2018-06-16T18:02:19.090Z,9.98
2018-06-16T18:04:48.010Z,11.48
2018-06-16T18:07:17.016Z,11.00
2018-06-16T18:09:46.076Z,12.93
2018-06-16T18:12:15.044Z,12.65
2018-06-16T18:14:44.952Z,14.40
2018-06-16T18:17:14.471Z,13.40
2018-06-16T18:19:43.442Z,13.10
2018-06-16T18:22:12.335Z,11.70
2018-06-16T18:24:41.314Z,12.33
2018-06-16T18:27:10.173Z,11.68
2018-06-16T18:29:39.149Z,12.18
2018-06-16T18:32:08.635Z,12.33
2018-06-16T18:34:37.552Z,13.05
2018-06-16T18:37:06.437Z,12.80
2018-06-16T18:39:35.906Z,13.28
2018-06-16T18:42:04.896Z,13.78
2018-06-16T18:44:33.888Z,13.67
2018-06-16T18:47:02.891Z,13.97
2018-06-16T18:49:31.792Z,14.43
2018-06-16T18:52:00.748Z,13.97
2018-06-16T18:54:29.713Z,15.23
2018-06-16T18:56:59.729Z,14.97
2018-06-16T18:59:28.692Z,18.40
2018-06-16T19:01:58.120Z,17.27
2018-06-16T19:04:27.654Z,16.20
2018-06-16T19:06:56.595Z,16.73
2018-06-16T19:09:25.672Z,15.37
2018-06-16T19:11:54.665Z,14.83
2018-06-16T19:14:23.618Z,16.20
2018-06-16T19:16:53.093Z,15.20
2018-06-16T19:19:22.015Z,16.37
2018-06-16T19:21:51.017Z,27.70
2018-06-16T19:24:20.601Z,19.43
2018-06-16T19:26:49.577Z,16.03
2018-06-16T19:29:18.583Z,15.77
2018-06-16T19:31:47.589Z,15.23
2018-06-16T19:34:16.472Z,15.17
2018-06-16T19:36:45.401Z,15.17
2018-06-16T19:39:14.408Z,16.47
2018-06-16T19:41:43.293Z,15.27
2018-06-16T19:45:15.585Z,17.80
2018-06-16T19:47:44.568Z,18.63
2018-06-16T19:50:13.605Z,18.20
2018-06-16T19:52:42.724Z,19.30
2018-06-16T19:55:11.739Z,15.57
2018-06-16T19:57:40.779Z,15.70
2018-06-16T20:00:09.820Z,16.50
2018-06-16T20:02:38.792Z,18.00
2018-06-16T20:05:07.841Z,16.37
2018-06-16T20:07:37.011Z,21.20
2018-06-16T20:10:06.077Z,20.97
2018-06-16T20:12:35.073Z,19.73
2018-06-16T20:15:04.499Z,15.67
2018-06-16T20:17:33.464Z,15.97
2018-06-16T20:20:02.403Z,16.03
2018-06-16T20:22:31.959Z,13.97
2018-06-16T20:25:00.809Z,15.17
2018-06-16T20:27:29.795Z,14.03
2018-06-16T20:29:59.046Z,14.83
2018-06-16T20:32:28.121Z,14.47
2018-06-16T20:34:57.101Z,13.33
2018-06-16T20:37:26.505Z,12.43
2018-06-16T20:39:55.593Z,14.07
2018-06-16T20:42:24.618Z,14.43
2018-06-16T20:44:54.196Z,14.83
2018-06-16T20:47:23.569Z,17.07
2018-06-16T20:49:54.025Z,15.80
2018-06-16T20:52:22.987Z,14.73
2018-06-16T20:54:52.152Z,16.07
2018-06-16T20:57:21.270Z,16.87
2018-06-16T20:59:50.290Z,14.73
2018-06-16T21:02:19.320Z,16.10
2018-06-16T21:04:48.825Z,15.33
2018-06-16T21:07:17.771Z,15.63
2018-06-16T21:09:47.055Z,15.57
2018-06-16T21:12:16.190Z,15.10
2018-06-16T21:14:45.329Z,16.00
2018-06-16T21:17:14.282Z,16.03
2018-06-16T21:19:43.289Z,16.63
2018-06-16T21:22:12.347Z,17.30
2018-06-16T21:24:41.753Z,18.07
2018-06-16T21:30:15.299Z,18.47
2018-06-16T21:32:45.025Z,17.57
2018-06-16T21:35:14.098Z,17.07
2018-06-16T21:37:43.384Z,17.40
2018-06-16T21:40:12.635Z,17.23
2018-06-16T21:42:44.353Z,17.40
2018-06-16T21:45:14.764Z,17.60
2018-06-16T21:47:46.601Z,16.70
2018-06-16T21:50:22.344Z,17.27
2018-06-16T21:52:53.229Z,16.80
2018-06-16T21:55:24.361Z,17.60
2018-06-16T21:57:55.187Z,17.40
2018-06-16T22:00:35.772Z,16.93
2018-06-16T22:03:18.325Z,16.80
2018-06-16T22:05:50.190Z,16.73
2018-06-16T22:08:25.729Z,16.77
2018-06-16T22:10:58.478Z,16.07
2018-06-16T22:13:29.649Z,15.23
2018-06-16T22:15:58.993Z,15.63
2018-06-16T22:18:32.523Z,15.20
2018-06-16T22:21:01.937Z,15.30
2018-06-16T22:23:31.353Z,15.53
2018-06-16T22:26:42.774Z,16.07
2018-06-16T22:29:12.214Z,16.23
2018-06-16T22:31:41.809Z,16.77
2018-06-16T22:34:11.773Z,16.63
2018-06-16T22:36:41.123Z,17.50
2018-06-16T22:39:22.011Z,16.43
2018-06-16T22:48:31.403Z,15.83
2018-06-16T22:51:08.110Z,16.87
2018-06-16T22:54:18.094Z,16.70
2018-06-16T22:56:47.259Z,16.27
2018-06-16T22:59:16.413Z,19.40
2018-06-16T23:01:46.481Z,17.60
2018-06-16T23:04:17.170Z,18.67
2018-06-16T23:06:46.404Z,17.87
2018-06-16T23:09:15.606Z,18.90
2018-06-16T23:11:44.862Z,18.00
2018-06-16T23:14:14.404Z,17.27
2018-06-16T23:16:43.923Z,16.53
2018-06-16T23:19:13.192Z,15.30
2018-06-16T23:21:42.421Z,13.83
2018-06-16T23:24:15.382Z,13.83
2018-06-16T23:26:44.705Z,13.67
2018-06-16T23:29:14.039Z,13.07
2018-06-16T23:31:43.602Z,13.80
2018-06-16T23:34:13.926Z,12.37
2018-06-16T23:36:43.312Z,12.43
2018-06-16T23:39:13.772Z,12.97
2018-06-16T23:41:44.091Z,11.30
2018-06-16T23:49:17.260Z,11.17
2018-06-16T23:51:47.833Z,11.43
2018-06-16T23:54:27.196Z,10.57
2018-06-16T23:57:03.284Z,11.40
2018-06-16T23:59:32.512Z,10.00
